createdAt,value
2023-05-15T00:00:42.047Z,0.63
2023-05-15T00:01:42.038Z,0.62
2023-05-15T00:02:42.080Z,0.63
2023-05-15T00:03:42.405Z,0.63
2023-05-15T00:04:42.145Z,0.62
2023-05-15T00:05:42.049Z,0.64
2023-05-15T00:06:42.054Z,0.62
2023-05-15T00:07:42.074Z,0.62
2023-05-15T00:08:42.047Z,0.62
2023-05-15T00:09:42.044Z,0.62
2023-05-15T00:10:47.663Z,0.63
2023-05-15T00:11:43.017Z,0.63
2023-05-15T00:12:42.005Z,0.62
2023-05-15T00:13:42.013Z,0.62
2023-05-15T00:14:41.980Z,0.63
2023-05-15T00:15:42.015Z,0.62
2023-05-15T00:16:42.131Z,0.62
2023-05-15T00:17:41.992Z,0.63
2023-05-15T00:18:41.966Z,0.62
2023-05-15T00:19:41.938Z,0.63
2023-05-15T00:20:41.928Z,0.64
2023-05-15T00:21:41.928Z,0.64
2023-05-15T00:22:41.920Z,0.63
2023-05-15T00:23:41.898Z,0.63
2023-05-15T00:24:41.894Z,0.63
2023-05-15T00:25:41.883Z,0.63
2023-05-15T00:26:41.882Z,0.64
2023-05-15T00:27:41.863Z,0.62
2023-05-15T00:28:41.854Z,0.63
2023-05-15T00:29:41.864Z,0.61
2023-05-15T00:30:41.851Z,0.62
2023-05-15T00:31:41.920Z,0.61
2023-05-15T00:32:41.882Z,0.63
2023-05-15T00:33:41.811Z,0.61
2023-05-15T00:34:41.804Z,0.61
2023-05-15T00:35:41.797Z,0.64
2023-05-15T00:36:41.794Z,0.63
2023-05-15T00:37:41.788Z,0.62
2023-05-15T00:38:41.781Z,0.63
2023-05-15T00:39:41.751Z,0.62
2023-05-15T00:40:41.739Z,0.62
2023-05-15T00:41:41.736Z,0.61
2023-05-15T00:42:41.734Z,0.61
2023-05-15T00:43:41.715Z,0.60
2023-05-15T00:44:41.712Z,0.62
2023-05-15T00:45:41.706Z,0.62
2023-05-15T00:46:41.714Z,0.61
2023-05-15T00:47:41.740Z,0.60
2023-05-15T00:48:41.682Z,0.61
2023-05-15T00:49:41.679Z,0.62
2023-05-15T00:50:41.676Z,0.61
2023-05-15T00:51:41.680Z,0.61
2023-05-15T00:52:41.653Z,0.62
2023-05-15T00:53:41.660Z,0.60
2023-05-15T00:54:41.625Z,0.61
2023-05-15T00:55:41.679Z,0.62
2023-05-15T00:56:41.624Z,0.61
2023-05-15T00:57:41.619Z,0.62
2023-05-15T00:58:41.612Z,0.61
2023-05-15T00:59:41.608Z,0.62
2023-05-15T01:00:41.634Z,0.61
2023-05-15T01:01:41.603Z,0.60
2023-05-15T01:02:41.645Z,0.61
2023-05-15T01:03:41.574Z,0.61
2023-05-15T01:04:41.582Z,0.61
2023-05-15T01:05:41.594Z,0.60
2023-05-15T01:06:41.586Z,0.61
2023-05-15T01:07:41.585Z,0.60
2023-05-15T01:08:41.560Z,0.61
2023-05-15T01:09:41.578Z,0.61
2023-05-15T01:10:41.557Z,0.60
2023-05-15T01:11:41.581Z,0.60
2023-05-15T01:12:41.579Z,0.63
2023-05-15T01:13:41.550Z,0.60
2023-05-15T01:14:41.578Z,0.61
2023-05-15T01:15:41.560Z,0.61
2023-05-15T01:16:41.566Z,0.62
2023-05-15T01:17:41.570Z,0.60
2023-05-15T01:18:41.604Z,0.60
2023-05-15T01:19:41.633Z,0.60
2023-05-15T01:20:41.532Z,0.60
2023-05-15T01:21:41.532Z,0.60
2023-05-15T01:22:41.533Z,0.61
2023-05-15T01:23:41.534Z,0.60
2023-05-15T01:24:41.538Z,0.61
2023-05-15T01:25:41.522Z,0.60
2023-05-15T01:26:41.530Z,0.58
2023-05-15T01:27:41.519Z,0.61
2023-05-15T01:28:41.520Z,0.60
2023-05-15T01:29:41.525Z,0.61
2023-05-15T01:30:41.525Z,0.59
2023-05-15T01:31:41.580Z,0.62
2023-05-15T01:32:41.558Z,0.60
2023-05-15T01:33:41.519Z,0.59
2023-05-15T01:34:41.514Z,0.61
2023-05-15T01:35:41.549Z,0.60
2023-05-15T01:36:41.573Z,0.59
2023-05-15T01:37:41.524Z,0.60
2023-05-15T01:38:41.536Z,0.60
2023-05-15T01:39:41.528Z,0.59
2023-05-15T01:40:41.544Z,0.60
2023-05-15T01:41:41.547Z,0.59
2023-05-15T01:42:41.531Z,0.60
2023-05-15T01:43:41.549Z,0.60
2023-05-15T01:44:41.540Z,0.59
2023-05-15T01:45:41.536Z,0.58
2023-05-15T01:46:41.556Z,0.59
2023-05-15T01:47:41.544Z,0.59
2023-05-15T01:48:41.514Z,0.59
2023-05-15T01:49:41.532Z,0.59
2023-05-15T01:50:41.542Z,0.59
2023-05-15T01:51:41.523Z,0.60
2023-05-15T01:52:41.586Z,0.61
2023-05-15T01:53:41.530Z,0.60
2023-05-15T01:54:41.519Z,0.59
2023-05-15T01:55:41.554Z,0.60
2023-05-15T01:56:41.511Z,0.60
2023-05-15T01:57:41.521Z,0.60
2023-05-15T01:58:41.524Z,0.59
2023-05-15T01:59:41.548Z,0.60
2023-05-15T02:00:41.536Z,0.60
2023-05-15T02:01:41.569Z,0.59
2023-05-15T02:02:41.611Z,0.60
2023-05-15T02:03:41.580Z,0.58
2023-05-15T02:04:41.517Z,0.60
2023-05-15T02:05:41.503Z,0.59
2023-05-15T02:06:41.520Z,0.60
2023-05-15T02:07:41.508Z,0.59
2023-05-15T02:08:41.507Z,0.59
2023-05-15T02:09:41.502Z,0.59
2023-05-15T02:10:41.506Z,0.60
2023-05-15T02:11:41.499Z,0.60
2023-05-15T02:12:41.514Z,0.60
2023-05-15T02:13:41.498Z,0.59
2023-05-15T02:14:41.509Z,0.60
2023-05-15T02:15:41.492Z,0.61
2023-05-15T02:16:41.598Z,0.58
2023-05-15T02:17:41.515Z,0.59
2023-05-15T02:18:41.554Z,0.59
2023-05-15T02:19:41.480Z,0.58
2023-05-15T02:20:41.470Z,0.58
2023-05-15T02:21:41.468Z,0.59
2023-05-15T02:22:41.464Z,0.59
2023-05-15T02:23:41.453Z,0.58
2023-05-15T02:24:41.516Z,0.60
2023-05-15T02:25:41.450Z,0.60
2023-05-15T02:26:41.434Z,0.59
2023-05-15T02:27:41.415Z,0.58
2023-05-15T02:28:41.425Z,0.60
2023-05-15T02:29:41.421Z,0.58
2023-05-15T02:30:41.408Z,0.58
2023-05-15T02:31:41.429Z,0.58
2023-05-15T02:32:41.424Z,0.58
2023-05-15T02:33:41.405Z,0.58
2023-05-15T02:34:41.404Z,0.58
2023-05-15T02:35:41.400Z,0.59
2023-05-15T02:36:41.411Z,0.57
2023-05-15T02:37:41.425Z,0.59
2023-05-15T02:38:41.405Z,0.59
2023-05-15T02:39:41.392Z,0.60
2023-05-15T02:40:41.410Z,0.59
2023-05-15T02:41:41.389Z,0.58
2023-05-15T02:42:41.455Z,0.58
2023-05-15T02:43:41.379Z,0.58
2023-05-15T02:44:41.379Z,0.59
2023-05-15T02:45:41.392Z,0.60
2023-05-15T02:46:41.380Z,0.57
2023-05-15T02:47:41.398Z,0.59
2023-05-15T02:48:41.372Z,0.60
2023-05-15T02:49:41.384Z,0.59
2023-05-15T02:50:41.372Z,0.58
2023-05-15T02:51:41.377Z,0.57
2023-05-15T02:52:41.365Z,0.59
2023-05-15T02:53:41.380Z,0.59
2023-05-15T02:54:41.374Z,0.58
2023-05-15T02:55:41.378Z,0.59
2023-05-15T02:56:41.429Z,0.58
2023-05-15T02:57:41.374Z,0.58
2023-05-15T02:58:41.371Z,0.58
2023-05-15T02:59:41.372Z,0.58
2023-05-15T03:00:41.391Z,0.58
2023-05-15T03:01:41.475Z,0.58
2023-05-15T03:02:41.392Z,0.58
2023-05-15T03:03:41.373Z,0.58
2023-05-15T03:04:41.435Z,0.60
2023-05-15T03:05:41.378Z,0.58
2023-05-15T03:06:41.399Z,0.57
2023-05-15T03:07:41.384Z,0.58
2023-05-15T03:08:41.385Z,0.58
2023-05-15T03:09:41.388Z,0.58
2023-05-15T03:10:42.146Z,0.58
2023-05-15T03:11:41.388Z,0.58
2023-05-15T03:12:41.419Z,0.58
2023-05-15T03:13:41.368Z,0.58
2023-05-15T03:14:41.375Z,0.59
2023-05-15T03:15:41.365Z,0.58
2023-05-15T03:16:41.386Z,0.56
2023-05-15T03:17:41.372Z,0.57
2023-05-15T03:18:41.405Z,0.58
2023-05-15T03:19:41.364Z,0.57
2023-05-15T03:20:41.353Z,0.56
2023-05-15T03:21:41.366Z,0.57
2023-05-15T03:22:41.411Z,0.56
2023-05-15T03:23:41.372Z,0.57
2023-05-15T03:24:41.371Z,0.57
2023-05-15T03:25:41.370Z,0.57
2023-05-15T03:26:41.370Z,0.57
2023-05-15T03:27:41.347Z,0.58
2023-05-15T03:28:42.376Z,0.57
2023-05-15T03:29:41.343Z,0.57
2023-05-15T03:30:41.326Z,0.57
2023-05-15T03:31:41.373Z,0.57
2023-05-15T03:32:41.389Z,0.57
2023-05-15T03:33:41.338Z,0.56
2023-05-15T03:34:41.331Z,0.57
2023-05-15T03:35:41.334Z,0.57
2023-05-15T03:36:41.332Z,0.58
2023-05-15T03:37:41.329Z,0.57
2023-05-15T03:38:41.320Z,0.57
2023-05-15T03:39:41.315Z,0.56
2023-05-15T03:40:41.338Z,0.57
2023-05-15T03:41:41.320Z,0.56
2023-05-15T03:42:41.315Z,0.57
2023-05-15T03:43:41.310Z,0.56
2023-05-15T03:44:41.329Z,0.57
2023-05-15T03:45:41.322Z,0.56
2023-05-15T03:46:41.431Z,0.57
2023-05-15T03:47:41.342Z,0.57
2023-05-15T03:48:41.305Z,0.56
2023-05-15T03:49:41.297Z,0.56
2023-05-15T03:50:41.306Z,0.56
2023-05-15T03:51:41.308Z,0.56
2023-05-15T03:52:42.286Z,0.56
2023-05-15T03:53:41.322Z,0.56
2023-05-15T03:54:41.311Z,0.57
2023-05-15T03:55:41.353Z,0.56
2023-05-15T03:56:41.319Z,0.56
2023-05-15T03:57:41.310Z,0.55
2023-05-15T03:58:41.316Z,0.56
2023-05-15T03:59:41.303Z,0.56
2023-05-15T04:00:41.312Z,0.56
2023-05-15T04:01:54.781Z,0.57
2023-05-15T04:02:42.422Z,0.57
2023-05-15T04:03:41.309Z,0.57
2023-05-15T04:04:41.302Z,0.57
2023-05-15T04:05:41.393Z,0.55
2023-05-15T04:06:41.276Z,0.56
2023-05-15T04:07:41.253Z,0.56
2023-05-15T04:08:41.640Z,0.57
2023-05-15T04:09:41.219Z,0.56
2023-05-15T04:10:41.215Z,0.56
2023-05-15T04:11:41.194Z,0.56
2023-05-15T04:12:41.198Z,0.55
2023-05-15T04:13:41.168Z,0.56
2023-05-15T04:14:41.154Z,0.54
2023-05-15T04:15:41.141Z,0.55
2023-05-15T04:16:41.165Z,0.55
2023-05-15T04:17:41.171Z,0.56
2023-05-15T04:18:41.162Z,0.57
2023-05-15T04:19:41.804Z,0.57
2023-05-15T04:20:41.093Z,0.56
2023-05-15T04:21:41.067Z,0.56
2023-05-15T04:22:41.076Z,0.55
2023-05-15T04:23:41.060Z,0.57
2023-05-15T04:24:41.049Z,0.55
2023-05-15T04:25:41.038Z,0.56
2023-05-15T04:26:41.061Z,0.55
2023-05-15T04:27:41.000Z,0.55
2023-05-15T04:28:49.385Z,0.55
2023-05-15T04:29:41.978Z,0.55
2023-05-15T04:30:40.950Z,0.55
2023-05-15T04:31:40.980Z,0.55
2023-05-15T04:32:41.005Z,0.55
2023-05-15T04:33:40.906Z,0.56
2023-05-15T04:34:40.888Z,0.55
2023-05-15T04:35:40.872Z,0.56
2023-05-15T04:36:42.936Z,0.54
2023-05-15T04:37:41.720Z,0.55
2023-05-15T04:38:40.827Z,0.56
2023-05-15T04:39:40.804Z,0.53
2023-05-15T04:40:40.803Z,0.55
2023-05-15T04:41:40.793Z,0.55
2023-05-15T04:42:40.788Z,0.55
2023-05-15T04:43:41.381Z,0.55
2023-05-15T04:44:40.758Z,0.53
2023-05-15T04:45:40.747Z,0.54
2023-05-15T04:46:40.783Z,0.55
2023-05-15T04:47:40.778Z,0.55
2023-05-15T04:48:40.720Z,0.56
2023-05-15T04:49:40.705Z,0.55
2023-05-15T04:50:40.711Z,0.54
2023-05-15T04:51:40.707Z,0.55
2023-05-15T04:52:40.714Z,0.54
2023-05-15T04:53:40.735Z,0.54
2023-05-15T04:54:40.726Z,0.55
2023-05-15T04:55:41.687Z,0.56
2023-05-15T04:56:40.750Z,0.57
2023-05-15T04:57:40.746Z,0.56
2023-05-15T04:58:40.749Z,0.56
2023-05-15T04:59:40.757Z,0.56
2023-05-15T05:00:40.760Z,0.55
2023-05-15T05:01:40.825Z,0.58
2023-05-15T05:02:40.830Z,0.56
2023-05-15T05:03:40.857Z,0.57
2023-05-15T05:04:40.817Z,0.58
2023-05-15T05:05:40.835Z,0.56
2023-05-15T05:06:40.830Z,0.59
2023-05-15T05:07:40.837Z,0.60
2023-05-15T05:08:40.852Z,0.61
2023-05-15T05:09:40.890Z,0.62
2023-05-15T05:10:40.911Z,0.65
2023-05-15T05:11:40.903Z,0.65
2023-05-15T05:12:40.884Z,0.66
2023-05-15T05:13:40.889Z,0.67
2023-05-15T05:14:40.878Z,0.68
2023-05-15T05:15:40.914Z,0.72
2023-05-15T05:16:40.886Z,0.73
2023-05-15T05:17:40.922Z,0.74
2023-05-15T05:18:40.924Z,0.77
2023-05-15T05:19:41.230Z,0.80
2023-05-15T05:20:40.892Z,0.80
2023-05-15T05:21:40.894Z,0.81
2023-05-15T05:22:41.045Z,0.82
2023-05-15T05:23:40.973Z,0.84
2023-05-15T05:24:41.046Z,0.90
2023-05-15T05:25:41.160Z,0.97
2023-05-15T05:26:41.670Z,1.07
2023-05-15T05:27:41.194Z,1.07
2023-05-15T05:28:41.240Z,1.08
2023-05-15T05:29:41.271Z,1.10
2023-05-15T05:30:41.305Z,1.12
2023-05-15T05:31:42.180Z,1.14
2023-05-15T05:32:41.373Z,1.19
2023-05-15T05:33:41.376Z,1.19
2023-05-15T05:34:41.398Z,1.24
2023-05-15T05:35:41.410Z,1.30
2023-05-15T05:36:41.404Z,1.30
2023-05-15T05:37:41.626Z,1.31
2023-05-15T05:38:41.415Z,1.31
2023-05-15T05:39:41.420Z,1.31
2023-05-15T05:40:41.435Z,1.26
2023-05-15T05:41:41.443Z,1.30
2023-05-15T05:42:41.451Z,1.29
2023-05-15T05:43:41.476Z,1.26
2023-05-15T05:44:41.488Z,1.27
2023-05-15T05:45:41.500Z,1.25
2023-05-15T05:46:41.549Z,1.25
2023-05-15T05:47:41.576Z,1.23
2023-05-15T05:48:41.560Z,1.22
2023-05-15T05:49:41.578Z,1.23
2023-05-15T05:50:41.592Z,1.21
2023-05-15T05:51:41.615Z,1.20
2023-05-15T05:52:41.622Z,1.18
2023-05-15T05:53:41.648Z,1.20
2023-05-15T05:54:41.670Z,1.17
2023-05-15T05:55:41.669Z,1.18
2023-05-15T05:56:41.697Z,1.13
2023-05-15T05:57:41.714Z,1.14
2023-05-15T05:58:41.734Z,1.15
2023-05-15T05:59:41.750Z,1.17
2023-05-15T06:00:41.753Z,1.14
2023-05-15T06:01:41.817Z,1.15
2023-05-15T06:02:41.880Z,1.12
2023-05-15T06:03:41.919Z,1.12
2023-05-15T06:04:41.840Z,1.12
2023-05-15T06:05:41.873Z,1.13
2023-05-15T06:06:41.880Z,1.14
2023-05-15T06:07:41.912Z,1.10
2023-05-15T06:08:41.955Z,1.12
2023-05-15T06:09:41.953Z,1.13
2023-05-15T06:10:41.980Z,1.11
2023-05-15T06:11:42.005Z,1.12
2023-05-15T06:12:42.026Z,1.08
2023-05-15T06:13:42.046Z,1.11
2023-05-15T06:14:42.062Z,1.09
2023-05-15T06:15:42.085Z,1.10
2023-05-15T06:16:42.177Z,1.11
2023-05-15T06:17:42.143Z,1.11
2023-05-15T06:18:42.190Z,1.10
2023-05-15T06:19:42.136Z,1.10
2023-05-15T06:20:42.141Z,1.11
2023-05-15T06:21:42.170Z,1.09
2023-05-15T06:22:42.257Z,1.10
2023-05-15T06:23:42.188Z,1.09
2023-05-15T06:24:42.292Z,1.11
2023-05-15T06:25:42.259Z,1.11
2023-05-15T06:26:42.251Z,1.11
2023-05-15T06:27:42.284Z,1.12
2023-05-15T06:28:42.292Z,1.11
2023-05-15T06:29:42.303Z,1.06
2023-05-15T06:30:42.336Z,1.08
2023-05-15T06:31:42.319Z,0.98
2023-05-15T06:32:42.341Z,0.93
2023-05-15T06:33:42.309Z,0.89
2023-05-15T06:34:42.308Z,0.93
2023-05-15T06:35:42.315Z,0.86
2023-05-15T06:36:42.325Z,0.80
2023-05-15T06:37:42.332Z,0.76
2023-05-15T06:38:42.323Z,0.71
2023-05-15T06:39:42.320Z,0.70
2023-05-15T06:40:42.353Z,0.75
2023-05-15T06:41:42.337Z,0.81
2023-05-15T06:42:42.322Z,0.80
2023-05-15T06:43:42.323Z,0.78
2023-05-15T06:44:42.310Z,0.82
2023-05-15T06:45:42.309Z,0.80
2023-05-15T06:46:42.440Z,0.79
2023-05-15T06:47:42.415Z,0.79
2023-05-15T06:48:42.319Z,0.87
2023-05-15T06:49:42.337Z,0.87
2023-05-15T06:50:42.346Z,0.94
2023-05-15T06:51:42.349Z,0.95
2023-05-15T06:52:42.356Z,0.82
2023-05-15T06:53:42.369Z,0.81
2023-05-15T06:54:42.368Z,0.87
2023-05-15T06:55:42.384Z,0.93
2023-05-15T06:56:42.392Z,0.98
2023-05-15T06:57:42.436Z,1.00
2023-05-15T06:58:42.426Z,1.02
2023-05-15T06:59:42.473Z,1.04
2023-05-15T07:00:42.441Z,1.07
2023-05-15T07:01:42.518Z,1.05
2023-05-15T07:02:42.478Z,1.08
2023-05-15T07:03:42.472Z,1.07
2023-05-15T07:04:42.509Z,1.08
2023-05-15T07:05:42.485Z,1.05
2023-05-15T07:06:42.494Z,1.08
2023-05-15T07:07:42.498Z,1.06
2023-05-15T07:08:42.520Z,1.08
2023-05-15T07:09:42.518Z,1.09
2023-05-15T07:10:42.537Z,1.09
2023-05-15T07:11:42.534Z,1.09
2023-05-15T07:12:42.592Z,1.09
2023-05-15T07:13:42.563Z,1.10
2023-05-15T07:14:42.570Z,1.08
2023-05-15T07:15:42.577Z,1.10
2023-05-15T07:16:42.586Z,1.09
2023-05-15T07:17:42.735Z,1.12
2023-05-15T07:18:42.712Z,1.10
2023-05-15T07:19:42.647Z,1.09
2023-05-15T07:20:42.660Z,1.09
2023-05-15T07:21:42.717Z,1.12
2023-05-15T07:22:54.870Z,1.13
2023-05-15T07:23:44.685Z,1.13
2023-05-15T07:24:42.815Z,1.12
2023-05-15T07:25:42.813Z,1.13
2023-05-15T07:26:54.276Z,1.10
2023-05-15T07:27:43.827Z,1.13
2023-05-15T07:28:43.102Z,1.08
2023-05-15T07:29:42.808Z,1.09
2023-05-15T07:30:42.800Z,1.11
2023-05-15T07:31:42.835Z,1.10
2023-05-15T07:32:42.852Z,1.10
2023-05-15T07:33:42.781Z,1.09
2023-05-15T07:34:42.794Z,1.10
2023-05-15T07:35:42.764Z,1.11
2023-05-15T07:36:42.762Z,1.09
2023-05-15T07:37:42.790Z,1.11
2023-05-15T07:38:42.739Z,1.10
2023-05-15T07:39:42.765Z,1.12
2023-05-15T07:40:42.714Z,1.07
2023-05-15T07:41:42.698Z,1.10
2023-05-15T07:42:42.690Z,1.11
2023-05-15T07:43:42.674Z,1.07
2023-05-15T07:44:44.988Z,1.09
2023-05-15T07:45:42.757Z,1.12
2023-05-15T07:46:42.730Z,1.10
2023-05-15T07:47:42.688Z,1.10
2023-05-15T07:48:42.627Z,1.13
2023-05-15T07:49:42.619Z,1.12
2023-05-15T07:50:42.610Z,1.13
2023-05-15T07:51:42.714Z,1.10
2023-05-15T07:52:42.647Z,1.09
2023-05-15T07:53:42.586Z,1.10
2023-05-15T07:54:42.583Z,1.09
2023-05-15T07:55:42.571Z,1.11
2023-05-15T07:56:42.577Z,1.11
2023-05-15T07:57:42.607Z,1.09
2023-05-15T07:58:42.557Z,1.09
2023-05-15T07:59:42.546Z,1.08
2023-05-15T08:00:42.768Z,1.10
2023-05-15T08:01:42.538Z,1.10
2023-05-15T08:02:42.654Z,1.12
2023-05-15T08:03:42.595Z,1.13
2023-05-15T08:04:43.436Z,1.11
2023-05-15T08:05:42.518Z,1.11
2023-05-15T08:06:42.793Z,1.12
2023-05-15T08:07:42.504Z,1.07
2023-05-15T08:08:43.284Z,1.12
2023-05-15T08:09:42.481Z,1.13
2023-05-15T08:10:42.484Z,1.09
2023-05-15T08:11:43.207Z,1.07
2023-05-15T08:12:43.302Z,1.08
2023-05-15T08:13:42.551Z,1.08
2023-05-15T08:14:42.607Z,1.12
2023-05-15T08:15:42.537Z,1.13
2023-05-15T08:16:43.282Z,1.12
2023-05-15T08:17:42.617Z,1.13
2023-05-15T08:18:42.594Z,1.07
2023-05-15T08:19:42.569Z,1.09
2023-05-15T08:20:42.582Z,1.12
2023-05-15T08:21:42.711Z,1.11
2023-05-15T08:22:42.722Z,1.04
2023-05-15T08:23:42.801Z,1.01
2023-05-15T08:24:42.861Z,1.03
2023-05-15T08:25:42.893Z,1.03
2023-05-15T08:26:42.971Z,1.02
2023-05-15T08:27:42.976Z,1.00
2023-05-15T08:28:43.714Z,1.00
2023-05-15T08:29:43.002Z,1.02
2023-05-15T08:30:43.009Z,1.01
2023-05-15T08:31:43.155Z,1.02
2023-05-15T08:32:43.089Z,0.93
2023-05-15T08:33:43.057Z,0.75
2023-05-15T08:34:43.803Z,0.61
2023-05-15T08:35:43.199Z,0.54
2023-05-15T08:36:43.121Z,0.50
2023-05-15T08:37:43.720Z,0.50
2023-05-15T08:38:43.801Z,0.50
2023-05-15T08:39:43.197Z,0.51
2023-05-15T08:40:43.213Z,0.50
2023-05-15T08:41:43.219Z,0.53
2023-05-15T08:42:43.283Z,0.62
2023-05-15T08:43:43.239Z,0.63
2023-05-15T08:44:43.763Z,0.68
2023-05-15T08:45:43.233Z,0.74
2023-05-15T08:46:43.277Z,0.76
2023-05-15T08:47:43.255Z,0.83
2023-05-15T08:48:43.261Z,0.84
2023-05-15T08:49:43.214Z,0.84
2023-05-15T08:50:43.211Z,0.83
2023-05-15T08:51:43.209Z,0.85
2023-05-15T08:52:43.226Z,0.90
2023-05-15T08:53:43.221Z,0.93
2023-05-15T08:54:43.359Z,0.91
2023-05-15T08:55:43.259Z,0.92
2023-05-15T08:56:43.215Z,0.90
2023-05-15T08:57:43.214Z,0.93
2023-05-15T08:58:43.205Z,0.97
2023-05-15T08:59:43.224Z,0.98
2023-05-15T09:00:43.219Z,1.00
2023-05-15T09:01:43.299Z,1.01
2023-05-15T09:02:43.379Z,1.03
2023-05-15T09:03:43.266Z,1.04
2023-05-15T09:04:43.214Z,1.05
2023-05-15T09:05:43.208Z,1.03
2023-05-15T09:06:43.213Z,1.06
2023-05-15T09:07:43.225Z,1.09
2023-05-15T09:08:43.215Z,1.07
2023-05-15T09:09:43.213Z,1.07
2023-05-15T09:10:43.232Z,1.10
2023-05-15T09:11:43.223Z,1.07
2023-05-15T09:12:43.814Z,1.08
2023-05-15T09:13:43.241Z,1.11
2023-05-15T09:14:43.271Z,1.12
2023-05-15T09:15:43.315Z,1.11
2023-05-15T09:16:43.442Z,1.11
2023-05-15T09:17:43.510Z,1.18
2023-05-15T09:18:43.459Z,1.14
2023-05-15T09:19:43.493Z,1.24
2023-05-15T09:20:43.558Z,1.36
2023-05-15T09:21:43.614Z,1.43
2023-05-15T09:22:43.841Z,1.43
2023-05-15T09:23:43.720Z,1.47
2023-05-15T09:24:43.752Z,1.52
2023-05-15T09:25:43.788Z,1.58
2023-05-15T09:26:43.805Z,1.53
2023-05-15T09:27:43.802Z,1.26
2023-05-15T09:28:43.819Z,1.11
2023-05-15T09:29:45.245Z,0.89
2023-05-15T09:30:43.821Z,0.70
2023-05-15T09:31:43.887Z,0.54
2023-05-15T09:32:43.860Z,0.50
2023-05-15T09:33:43.850Z,0.49
2023-05-15T09:34:43.893Z,0.51
2023-05-15T09:35:43.881Z,0.51
2023-05-15T09:36:44.748Z,0.75
2023-05-15T09:37:43.907Z,0.99
2023-05-15T09:38:43.956Z,1.18
2023-05-15T09:39:43.908Z,1.41
2023-05-15T09:40:43.912Z,1.53
2023-05-15T09:41:43.900Z,1.63
2023-05-15T09:42:43.904Z,1.68
2023-05-15T09:43:43.879Z,1.69
2023-05-15T09:44:43.862Z,1.72
2023-05-15T09:45:43.858Z,1.79
2023-05-15T09:46:43.916Z,1.93
2023-05-15T09:47:43.937Z,2.15
2023-05-15T09:48:43.874Z,2.21
2023-05-15T09:49:43.816Z,2.18
2023-05-15T09:50:43.807Z,1.91
2023-05-15T09:51:43.811Z,1.44
2023-05-15T09:52:43.808Z,0.95
2023-05-15T09:53:43.857Z,0.85
2023-05-15T09:54:43.784Z,1.16
2023-05-15T09:55:43.781Z,1.40
2023-05-15T09:56:43.776Z,1.58
2023-05-15T09:57:43.779Z,1.68
2023-05-15T09:58:43.756Z,1.88
2023-05-15T09:59:43.773Z,1.96
2023-05-15T10:00:48.567Z,2.05
2023-05-15T10:01:44.835Z,2.06
2023-05-15T10:02:43.762Z,2.07
2023-05-15T10:03:43.787Z,2.10
2023-05-15T10:04:43.735Z,2.15
2023-05-15T10:05:44.239Z,2.22
2023-05-15T10:06:43.718Z,2.24
2023-05-15T10:07:43.683Z,2.23
2023-05-15T10:08:43.700Z,2.23
2023-05-15T10:09:43.683Z,2.19
2023-05-15T10:10:43.704Z,2.20
2023-05-15T10:11:43.694Z,2.24
2023-05-15T10:12:43.681Z,2.24
2023-05-15T10:13:43.678Z,2.21
2023-05-15T10:14:43.709Z,2.25
2023-05-15T10:15:43.698Z,2.33
2023-05-15T10:16:43.798Z,2.32
2023-05-15T10:17:43.712Z,2.33
2023-05-15T10:18:43.664Z,2.48
2023-05-15T10:19:56.731Z,2.57
2023-05-15T10:20:44.636Z,2.58
2023-05-15T10:21:43.646Z,2.58
2023-05-15T10:22:43.599Z,2.62
2023-05-15T10:23:43.597Z,2.66
2023-05-15T10:24:43.577Z,2.72
2023-05-15T10:25:43.588Z,2.77
2023-05-15T10:26:43.542Z,2.76
2023-05-15T10:27:43.598Z,2.81
2023-05-15T10:28:44.895Z,2.76
2023-05-15T10:29:43.515Z,2.84
2023-05-15T10:30:43.491Z,2.83
2023-05-15T10:31:43.569Z,2.78
2023-05-15T10:32:43.572Z,2.82
2023-05-15T10:33:43.468Z,2.76
2023-05-15T10:34:43.435Z,2.86
2023-05-15T10:35:43.427Z,2.84
2023-05-15T10:36:43.435Z,2.84
2023-05-15T10:37:43.393Z,2.78
2023-05-15T10:38:43.404Z,2.93
2023-05-15T10:39:43.375Z,2.89
2023-05-15T10:40:43.428Z,2.89
2023-05-15T10:41:44.279Z,2.82
2023-05-15T10:42:43.320Z,2.90
2023-05-15T10:43:43.307Z,2.84
2023-05-15T10:44:43.294Z,2.78
2023-05-15T10:45:43.279Z,2.82
2023-05-15T10:46:43.324Z,2.85
2023-05-15T10:47:43.281Z,2.87
2023-05-15T10:48:43.241Z,2.90
2023-05-15T10:49:43.253Z,2.94
2023-05-15T10:50:43.265Z,2.97
2023-05-15T10:51:43.273Z,3.03
2023-05-15T10:52:43.287Z,3.01
2023-05-15T10:53:43.281Z,3.07
2023-05-15T10:54:43.800Z,3.07
2023-05-15T10:55:43.313Z,3.09
2023-05-15T10:56:43.284Z,3.14
2023-05-15T10:57:43.297Z,3.16
2023-05-15T10:58:43.294Z,3.19
2023-05-15T10:59:43.300Z,3.15
2023-05-15T11:00:43.393Z,3.17
2023-05-15T11:01:43.500Z,3.24
2023-05-15T11:02:43.396Z,3.21
2023-05-15T11:03:49.233Z,3.24
2023-05-15T11:04:44.465Z,3.24
2023-05-15T11:05:43.389Z,3.25
2023-05-15T11:06:43.385Z,3.29
2023-05-15T11:07:43.380Z,3.31
2023-05-15T11:08:43.423Z,3.33
2023-05-15T11:09:43.388Z,3.44
2023-05-15T11:10:43.386Z,3.53
2023-05-15T11:11:43.373Z,3.69
2023-05-15T11:12:43.380Z,3.82
2023-05-15T11:13:43.390Z,3.92
2023-05-15T11:14:43.371Z,4.05
2023-05-15T11:15:43.375Z,4.23
2023-05-15T11:16:43.447Z,4.25
2023-05-15T11:17:43.409Z,4.22
2023-05-15T11:18:43.342Z,4.25
2023-05-15T11:19:43.350Z,4.25
2023-05-15T11:20:43.353Z,4.29
2023-05-15T11:21:43.369Z,4.35
2023-05-15T11:22:43.338Z,4.36
2023-05-15T11:23:43.327Z,4.37
2023-05-15T11:24:43.324Z,4.37
2023-05-15T11:25:43.288Z,4.43
2023-05-15T11:26:43.286Z,4.44
2023-05-15T11:27:43.269Z,4.37
2023-05-15T11:28:43.265Z,4.58
2023-05-15T11:29:43.263Z,4.55
2023-05-15T11:30:43.262Z,4.53
2023-05-15T11:31:43.222Z,4.56
2023-05-15T11:32:43.263Z,4.38
2023-05-15T11:33:43.202Z,4.54
2023-05-15T11:34:43.190Z,4.54
2023-05-15T11:35:43.233Z,4.54
2023-05-15T11:36:43.161Z,4.59
2023-05-15T11:37:43.163Z,4.80
2023-05-15T11:38:43.153Z,5.28
2023-05-15T11:39:43.148Z,5.80
2023-05-15T11:40:43.143Z,6.18
2023-05-15T11:41:43.117Z,6.24
2023-05-15T11:42:43.124Z,6.30
2023-05-15T11:43:43.124Z,6.21
2023-05-15T11:44:43.096Z,6.24
2023-05-15T11:45:43.093Z,6.18
2023-05-15T11:46:43.125Z,6.25
2023-05-15T11:47:43.101Z,6.25
2023-05-15T11:48:43.079Z,6.26
2023-05-15T11:49:43.065Z,6.27
2023-05-15T11:50:43.053Z,6.34
2023-05-15T11:51:43.051Z,6.31
2023-05-15T11:52:43.052Z,6.38
2023-05-15T11:53:43.045Z,6.26
2023-05-15T11:54:43.033Z,6.27
2023-05-15T11:55:43.018Z,6.27
2023-05-15T11:56:43.016Z,6.30
2023-05-15T11:57:43.027Z,6.13
2023-05-15T11:58:43.011Z,5.81
2023-05-15T11:59:43.011Z,5.86
2023-05-15T12:00:42.996Z,5.71
2023-05-15T12:01:42.992Z,5.68
2023-05-15T12:02:43.059Z,5.55
2023-05-15T12:03:43.060Z,5.51
2023-05-15T12:04:43.005Z,5.43
2023-05-15T12:05:53.686Z,5.59
2023-05-15T12:06:43.965Z,5.59
2023-05-15T12:07:42.962Z,5.44
2023-05-15T12:08:42.942Z,5.45
2023-05-15T12:09:42.930Z,5.54
2023-05-15T12:10:42.915Z,5.59
2023-05-15T12:11:42.922Z,5.59
2023-05-15T12:12:42.905Z,5.59
2023-05-15T12:13:42.916Z,5.54
2023-05-15T12:14:42.900Z,5.59
2023-05-15T12:15:42.912Z,5.40
2023-05-15T12:16:42.912Z,5.29
2023-05-15T12:17:42.904Z,5.19
2023-05-15T12:18:42.914Z,5.16
2023-05-15T12:19:42.875Z,5.05
2023-05-15T12:20:42.872Z,5.06
2023-05-15T12:21:42.868Z,5.06
2023-05-15T12:22:42.880Z,5.08
2023-05-15T12:23:43.050Z,5.10
2023-05-15T12:24:43.872Z,5.06
2023-05-15T12:25:42.846Z,5.08
2023-05-15T12:26:42.857Z,5.10
2023-05-15T12:27:42.839Z,5.07
2023-05-15T12:28:43.415Z,5.06
2023-05-15T12:29:42.839Z,5.06
2023-05-15T12:30:42.834Z,5.13
2023-05-15T12:31:42.877Z,5.16
2023-05-15T12:32:42.905Z,5.17
2023-05-15T12:33:42.830Z,5.16
2023-05-15T12:34:42.831Z,5.16
2023-05-15T12:35:42.871Z,5.17
2023-05-15T12:36:42.859Z,5.12
2023-05-15T12:37:42.801Z,5.16
2023-05-15T12:38:42.790Z,4.95
2023-05-15T12:39:42.777Z,4.81
2023-05-15T12:40:42.762Z,4.84
2023-05-15T12:41:42.754Z,5.01
2023-05-15T12:42:42.752Z,5.10
2023-05-15T12:43:42.735Z,5.17
2023-05-15T12:44:42.722Z,5.20
2023-05-15T12:45:42.809Z,5.15
2023-05-15T12:46:42.767Z,5.19
2023-05-15T12:47:42.858Z,5.15
2023-05-15T12:48:42.733Z,5.14
2023-05-15T12:49:42.760Z,5.17
2023-05-15T12:50:42.779Z,5.11
2023-05-15T12:51:42.799Z,5.11
2023-05-15T12:52:42.824Z,5.09
2023-05-15T12:53:42.857Z,5.04
2023-05-15T12:54:42.881Z,5.01
2023-05-15T12:55:42.913Z,4.89
2023-05-15T12:56:42.940Z,5.05
2023-05-15T12:57:42.969Z,5.07
2023-05-15T12:58:42.987Z,5.09
2023-05-15T12:59:42.989Z,5.09
2023-05-15T13:00:43.973Z,5.10
2023-05-15T13:01:42.974Z,5.11
2023-05-15T13:02:43.039Z,5.02
2023-05-15T13:03:43.048Z,5.06
2023-05-15T13:04:43.093Z,5.06
2023-05-15T13:05:42.919Z,5.07
2023-05-15T13:06:46.995Z,4.80
2023-05-15T13:07:42.881Z,4.80
2023-05-15T13:08:42.890Z,4.81
2023-05-15T13:09:42.866Z,4.70
2023-05-15T13:10:42.849Z,4.46
2023-05-15T13:11:42.844Z,4.52
2023-05-15T13:12:42.832Z,4.51
2023-05-15T13:13:42.825Z,4.54
2023-05-15T13:14:42.802Z,4.55
2023-05-15T13:15:42.800Z,4.55
2023-05-15T13:16:42.766Z,4.57
2023-05-15T13:17:42.809Z,4.55
2023-05-15T13:18:42.847Z,4.62